LFMK 210400Z AUTO 28017KT 9999 OVC050 03/01 Q1028 TEMPO BKN013 BECMG 27015G25KT

ElémentsDécodage
LFMK Station météo située sur l'aérodrome de CARCASSONNE Salvaza
210400Z émis le 21 du mois à 04h00 UTC
AUTO Bulletin édité par un automate
28017KT vent du 280°, 17 noeuds
9999 visibilité horizontale supérieure à 10 Km
OVC050 couverture nuageuse totale (8/8) à 5000 pieds
03/01 température 03°C, point de rosée 01°C
 soit une humidité relative de 87%
Q1028 la pression au niveau de la mer (QNH) est de 1028 hPa
TEMPO fluctuation temporaire prévue
BKN013 nuages morcelés (5/8 à 7/8) à 1300 pieds
BECMG fluctuation du temps prévue
27015G25KT vent du 270°, moyenne: 15 noeuds, avec rafales à 25 noeuds